Time,TemperatureF,DewpointF,PressureIn,WindDirection,WindDirectionDegrees,WindSpeedMPH,WindSpeedGustMPH,Humidity,HourlyPrecipIn,Conditions,Clouds,dailyrainin,SoftwareType,DateUTC
2013-09-07 00:01:00,67.8,66.3,30.07,East,93,0.0,0.0,95,0.00,,SKC,0.00,VWS V14.01,2013-09-07 04:01:00,
2013-09-07 00:02:00,67.7,66.2,30.07,East,94,0.0,0.0,95,0.00,,SKC,0.00,VWS V14.01,2013-09-07 04:02:00,
2013-09-07 00:07:00,67.6,66.1,30.07,East,93,0.0,0.0,95,0.00,,SKC,0.00,VWS V14.01,2013-09-07 04:07:00,
2013-09-07 00:12:00,67.4,65.9,30.06,East,93,0.0,0.0,95,0.00,,SKC,0.00,VWS V14.01,2013-09-07 04:12:00,
2013-09-07 00:17:00,67.3,65.8,30.06,East,93,0.0,0.0,95,0.00,,SKC,0.00,VWS V14.01,2013-09-07 04:17:00,
2013-09-07 00:22:00,67.2,65.7,30.06,East,93,0.0,0.0,95,0.00,,SKC,0.00,VWS V14.01,2013-09-07 04:22:00,
2013-09-07 00:27:00,67.0,65.5,30.06,East,93,0.0,0.0,95,0.00,,SKC,0.00,VWS V14.01,2013-09-07 04:27:00,
2013-09-07 00:32:00,67.1,65.9,30.06,East,94,0.0,0.0,96,0.00,,SKC,0.00,VWS V14.01,2013-09-07 04:32:00,
2013-09-07 00:37:00,66.8,65.6,30.06,East,94,0.0,0.0,96,0.00,,SKC,0.00,VWS V14.01,2013-09-07 04:37:00,
2013-09-07 00:42:00,67.0,65.8,30.06,East,93,0.0,0.0,96,0.00,,SKC,0.00,VWS V14.01,2013-09-07 04:42:00,
2013-09-07 00:47:00,67.1,65.9,30.06,East,94,0.0,0.0,96,0.00,,SKC,0.00,VWS V14.01,2013-09-07 04:47:00,
2013-09-07 00:52:00,67.0,65.8,30.06,East,94,0.0,0.0,96,0.00,,SKC,0.00,VWS V14.01,2013-09-07 04:52:00,
2013-09-07 00:57:00,66.9,65.7,30.06,East,94,0.0,0.0,96,0.00,,SKC,0.00,VWS V14.01,2013-09-07 04:57:00,
2013-09-07 01:02:00,66.7,65.5,30.06,East,93,0.0,0.0,96,0.00,,SKC,0.00,VWS V14.01,2013-09-07 05:02:00,
2013-09-07 01:07:00,66.6,65.4,30.06,East,93,0.0,0.0,96,0.00,,SKC,0.00,VWS V14.01,2013-09-07 05:07:00,
2013-09-07 01:12:00,66.6,65.7,30.06,East,93,0.0,0.0,97,0.00,,SKC,0.00,VWS V14.01,2013-09-07 05:12:00,
2013-09-07 01:17:00,66.6,65.7,30.06,East,94,0.0,0.0,97,0.00,,SKC,0.00,VWS V14.01,2013-09-07 05:17:00,
2013-09-07 01:22:00,66.7,65.8,30.06,East,93,0.0,0.0,97,0.00,,SKC,0.00,VWS V14.01,2013-09-07 05:22:00,
2013-09-07 01:27:00,66.6,65.7,30.06,East,94,0.0,0.0,97,0.00,,SKC,0.00,VWS V14.01,2013-09-07 05:27:00,
2013-09-07 01:32:00,66.5,65.6,30.06,East,94,0.0,0.0,97,0.00,,SKC,0.00,VWS V14.01,2013-09-07 05:32:00,
2013-09-07 01:37:00,66.3,65.4,30.06,East,94,0.0,0.0,97,0.00,,SKC,0.00,VWS V14.01,2013-09-07 05:37:00,
2013-09-07 01:42:00,66.0,64.8,30.07,East,94,0.0,0.0,96,0.00,,SKC,0.00,VWS V14.01,2013-09-07 05:42:00,
2013-09-07 01:47:00,66.2,65.3,30.06,East,94,0.0,0.0,97,0.00,,SKC,0.00,VWS V14.01,2013-09-07 05:47:00,
2013-09-07 01:52:00,66.2,65.3,30.06,East,94,0.0,0.0,97,0.00,,SKC,0.00,VWS V14.01,2013-09-07 05:52:00,
2013-09-07 01:57:00,66.1,65.2,30.06,East,93,0.0,0.0,97,0.00,,SKC,0.00,VWS V14.01,2013-09-07 05:57:00,
2013-09-07 02:02:00,66.2,65.3,30.06,East,94,0.0,0.0,97,0.00,,SKC,0.00,VWS V14.01,2013-09-07 06:02:00,
2013-09-07 02:07:00,66.0,65.1,30.06,East,93,0.0,0.0,97,0.00,,SKC,0.00,VWS V14.01,2013-09-07 06:07:00,
2013-09-07 02:12:00,65.8,64.9,30.06,East,93,0.0,0.0,97,0.00,,SKC,0.00,VWS V14.01,2013-09-07 06:12:00,
2013-09-07 02:17:00,65.8,64.9,30.06,East,93,0.0,0.0,97,0.00,,SKC,0.00,VWS V14.01,2013-09-07 06:17:00,
2013-09-07 02:22:00,66.0,65.4,30.06,East,94,0.0,0.0,98,0.00,,SKC,0.00,VWS V14.01,2013-09-07 06:22:00,
2013-09-07 02:27:00,66.0,65.4,30.05,East,93,0.0,0.0,98,0.00,,SKC,0.00,VWS V14.01,2013-09-07 06:27:00,
2013-09-07 02:32:00,65.9,65.0,30.05,East,93,0.0,0.0,97,0.00,,SKC,0.00,VWS V14.01,2013-09-07 06:32:00,
2013-09-07 02:37:00,65.8,64.9,30.05,East,93,0.0,0.0,97,0.00,,SKC,0.00,VWS V14.01,2013-09-07 06:37:00,
2013-09-07 02:42:00,65.6,64.7,30.06,East,93,0.0,0.0,97,0.00,,SKC,0.00,VWS V14.01,2013-09-07 06:42:00,
2013-09-07 02:47:00,65.5,64.6,30.06,East,93,0.0,0.0,97,0.00,,SKC,0.00,VWS V14.01,2013-09-07 06:47:00,
2013-09-07 02:52:00,65.5,64.9,30.05,East,93,0.0,0.0,98,0.00,,SKC,0.00,VWS V14.01,2013-09-07 06:52:00,
2013-09-07 02:57:00,65.6,65.0,30.05,East,94,0.0,0.0,98,0.00,,SKC,0.00,VWS V14.01,2013-09-07 06:57:00,
2013-09-07 03:02:00,65.6,65.0,30.05,East,93,0.0,0.0,98,0.00,,SKC,0.00,VWS V14.01,2013-09-07 07:02:00,
2013-09-07 03:07:00,65.5,64.9,30.05,East,94,0.0,0.0,98,0.00,,SKC,0.00,VWS V14.01,2013-09-07 07:07:00,
2013-09-07 03:12:00,65.5,64.9,30.05,East,93,0.0,0.0,98,0.00,,SKC,0.00,VWS V14.01,2013-09-07 07:12:00,
2013-09-07 03:17:00,65.4,64.8,30.05,East,94,0.0,0.0,98,0.00,,SKC,0.00,VWS V14.01,2013-09-07 07:17:00,
2013-09-07 03:22:00,65.2,64.6,30.05,East,93,0.0,0.0,98,0.00,,SKC,0.00,VWS V14.01,2013-09-07 07:22:00,
2013-09-07 03:27:00,65.2,64.6,30.05,East,94,0.0,0.0,98,0.00,,SKC,0.00,VWS V14.01,2013-09-07 07:27:00,
2013-09-07 03:32:00,65.1,64.5,30.05,East,93,0.0,0.0,98,0.00,,SKC,0.00,VWS V14.01,2013-09-07 07:32:00,
2013-09-07 03:37:00,64.9,64.3,30.05,East,94,0.0,0.0,98,0.00,,SKC,0.00,VWS V14.01,2013-09-07 07:37:00,
2013-09-07 03:42:00,64.7,64.1,30.05,East,93,0.0,0.0,98,0.00,,SKC,0.00,VWS V14.01,2013-09-07 07:42:00,
2013-09-07 03:47:00,64.6,64.0,30.05,East,94,0.0,0.0,98,0.00,,SKC,0.00,VWS V14.01,2013-09-07 07:47:00,
2013-09-07 03:52:00,64.4,63.5,30.05,East,94,0.0,0.0,97,0.00,,SKC,0.00,VWS V14.01,2013-09-07 07:52:00,
2013-09-07 03:57:00,64.4,63.5,30.05,East,94,0.0,0.0,97,0.00,,SKC,0.00,VWS V14.01,2013-09-07 07:57:00,
2013-09-07 04:02:00,64.4,63.5,30.05,East,94,0.0,0.0,97,0.00,,SKC,0.00,VWS V14.01,2013-09-07 08:02:00,
2013-09-07 04:07:00,64.4,63.5,30.06,East,94,0.0,0.0,97,0.00,,SKC,0.00,VWS V14.01,2013-09-07 08:07:00,
2013-09-07 04:12:00,64.4,63.5,30.05,East,94,0.0,0.0,97,0.00,,SKC,0.00,VWS V14.01,2013-09-07 08:12:00,
2013-09-07 04:17:00,64.4,63.5,30.06,East,94,0.0,0.0,97,0.00,,SKC,0.00,VWS V14.01,2013-09-07 08:17:00,
2013-09-07 04:22:00,64.4,63.5,30.05,East,94,0.0,0.0,97,0.00,,SKC,0.00,VWS V14.01,2013-09-07 08:22:00,
2013-09-07 04:27:00,64.4,63.5,30.05,East,94,0.0,0.0,97,0.00,,SKC,0.00,VWS V14.01,2013-09-07 08:27:00,
2013-09-07 04:32:00,64.4,63.5,30.05,East,94,0.0,0.0,97,0.00,,SKC,0.00,VWS V14.01,2013-09-07 08:32:00,
2013-09-07 04:37:00,64.4,63.5,30.05,East,94,0.0,0.0,97,0.00,,SKC,0.00,VWS V14.01,2013-09-07 08:37:00,
2013-09-07 04:42:00,64.4,63.5,30.05,East,94,0.0,0.0,97,0.00,,SKC,0.00,VWS V14.01,2013-09-07 08:42:00,
2013-09-07 04:47:00,64.4,63.5,30.05,East,94,0.0,0.0,97,0.00,,SKC,0.00,VWS V14.01,2013-09-07 08:47:00,
2013-09-07 04:52:00,64.4,63.5,30.05,East,94,0.0,0.0,97,0.00,,SKC,0.00,VWS V14.01,2013-09-07 08:52:00,
2013-09-07 04:57:00,64.4,63.5,30.05,East,94,0.0,0.0,97,0.00,,SKC,0.00,VWS V14.01,2013-09-07 08:57:00,
2013-09-07 05:02:00,64.4,63.5,30.05,East,94,0.0,0.0,97,0.00,,SKC,0.00,VWS V14.01,2013-09-07 09:02:00,
2013-09-07 05:07:00,64.4,63.5,30.06,East,94,0.0,0.0,97,0.00,,SKC,0.00,VWS V14.01,2013-09-07 09:07:00,
2013-09-07 05:12:00,64.4,63.5,30.06,East,94,0.0,0.0,97,0.00,,SKC,0.00,VWS V14.01,2013-09-07 09:12:00,
2013-09-07 05:17:00,64.4,63.5,30.06,East,94,0.0,0.0,97,0.00,,SKC,0.00,VWS V14.01,2013-09-07 09:17:00,
2013-09-07 05:22:00,64.4,63.5,30.06,East,94,0.0,0.0,97,0.00,,SKC,0.00,VWS V14.01,2013-09-07 09:22:00,
2013-09-07 05:27:00,64.4,63.5,30.06,East,94,0.0,0.0,97,0.00,,SKC,0.00,VWS V14.01,2013-09-07 09:27:00,
2013-09-07 05:32:00,64.4,63.5,30.06,East,94,0.0,0.0,97,0.00,,SKC,0.00,VWS V14.01,2013-09-07 09:32:00,
2013-09-07 05:37:00,64.4,63.5,30.06,East,94,0.0,0.0,97,0.00,,SKC,0.00,VWS V14.01,2013-09-07 09:37:00,
2013-09-07 05:42:00,64.4,63.5,30.06,East,94,0.0,0.0,97,0.00,,SKC,0.00,VWS V14.01,2013-09-07 09:42:00,
2013-09-07 05:47:00,64.4,63.5,30.06,East,94,0.0,0.0,97,0.00,,SKC,0.00,VWS V14.01,2013-09-07 09:47:00,
2013-09-07 05:52:00,64.4,63.5,30.06,East,94,0.0,0.0,97,0.00,,SKC,0.00,VWS V14.01,2013-09-07 09:52:00,
2013-09-07 05:57:00,64.4,63.5,30.06,East,94,0.0,0.0,97,0.00,,SKC,0.00,VWS V14.01,2013-09-07 09:57:00,
2013-09-07 06:02:00,64.4,63.5,30.06,East,94,0.0,0.0,97,0.00,,SKC,0.00,VWS V14.01,2013-09-07 10:02:00,
2013-09-07 06:07:00,64.4,63.5,30.06,East,94,0.0,0.0,97,0.00,,SKC,0.00,VWS V14.01,2013-09-07 10:07:00,
2013-09-07 06:12:00,64.4,63.5,30.06,East,94,0.0,0.0,97,0.00,,SKC,0.00,VWS V14.01,2013-09-07 10:12:00,
2013-09-07 06:18:00,64.4,63.5,30.06,East,94,0.0,0.0,97,0.00,,SKC,0.00,VWS V14.01,2013-09-07 10:18:00,
2013-09-07 06:23:00,64.4,63.5,30.06,East,94,0.0,0.0,97,0.00,,SKC,0.00,VWS V14.01,2013-09-07 10:23:00,
2013-09-07 06:28:00,64.4,63.5,30.06,East,94,0.0,0.0,97,0.00,,SKC,0.00,VWS V14.01,2013-09-07 10:28:00,
2013-09-07 06:33:00,64.4,63.5,30.06,East,94,0.0,0.0,97,0.00,,SKC,0.00,VWS V14.01,2013-09-07 10:33:00,
2013-09-07 06:38:00,64.4,63.5,30.06,East,94,0.0,0.0,97,0.00,,SKC,0.00,VWS V14.01,2013-09-07 10:38:00,
2013-09-07 06:43:00,64.4,63.5,30.07,East,94,0.0,0.0,97,0.00,,SKC,0.00,VWS V14.01,2013-09-07 10:43:00,
2013-09-07 06:48:00,64.4,63.5,30.07,East,94,0.0,0.0,97,0.00,,SKC,0.00,VWS V14.01,2013-09-07 10:48:00,
2013-09-07 06:53:00,64.4,63.5,30.07,East,94,0.0,0.0,97,0.00,,SKC,0.00,VWS V14.01,2013-09-07 10:53:00,
2013-09-07 06:58:00,64.4,63.5,30.07,East,94,0.0,0.0,97,0.00,,SKC,0.00,VWS V14.01,2013-09-07 10:58:00,
2013-09-07 07:03:00,64.4,63.5,30.07,East,94,0.0,0.0,97,0.00,,SKC,0.00,VWS V14.01,2013-09-07 11:03:00,
2013-09-07 07:08:00,64.4,63.5,30.07,East,94,0.0,0.0,97,0.00,,SKC,0.00,VWS V14.01,2013-09-07 11:08:00,
2013-09-07 07:13:00,64.4,63.5,30.07,East,94,0.0,0.0,97,0.00,,SKC,0.00,VWS V14.01,2013-09-07 11:13:00,
2013-09-07 07:18:00,64.4,63.5,30.07,East,94,0.0,0.0,97,0.00,,SKC,0.00,VWS V14.01,2013-09-07 11:18:00,
2013-09-07 07:23:00,64.4,63.5,30.07,East,94,0.0,0.0,97,0.00,,SKC,0.00,VWS V14.01,2013-09-07 11:23:00,
2013-09-07 07:28:00,64.4,63.5,30.07,East,94,0.0,0.0,97,0.00,,SKC,0.00,VWS V14.01,2013-09-07 11:28:00,
2013-09-07 07:33:00,64.4,63.5,30.07,East,94,0.0,0.0,97,0.00,,SKC,0.00,VWS V14.01,2013-09-07 11:33:00,
2013-09-07 07:38:00,64.4,63.5,30.08,East,94,0.0,0.0,97,0.00,,SKC,0.00,VWS V14.01,2013-09-07 11:38:00,
2013-09-07 07:43:00,64.4,63.5,30.08,East,94,0.0,0.0,97,0.00,,SKC,0.00,VWS V14.01,2013-09-07 11:43:00,
2013-09-07 07:48:00,64.4,63.5,30.08,East,94,0.0,0.0,97,0.00,,SKC,0.00,VWS V14.01,2013-09-07 11:48:00,
2013-09-07 07:53:00,64.4,63.5,30.08,East,94,0.0,0.0,97,0.00,,SKC,0.00,VWS V14.01,2013-09-07 11:53:00,
2013-09-07 07:58:00,64.4,63.5,30.08,East,94,0.0,0.0,97,0.00,,SKC,0.00,VWS V14.01,2013-09-07 11:58:00,
2013-09-07 08:03:00,64.4,63.5,30.08,East,94,0.0,0.0,97,0.00,,SKC,0.00,VWS V14.01,2013-09-07 12:03:00,
2013-09-07 08:08:00,64.4,63.5,30.08,East,94,0.0,0.0,97,0.00,,SKC,0.00,VWS V14.01,2013-09-07 12:08:00,
2013-09-07 08:13:00,64.4,63.5,30.08,East,94,0.0,0.0,97,0.00,,SKC,0.00,VWS V14.01,2013-09-07 12:13:00,
2013-09-07 08:18:00,64.4,63.5,30.09,East,94,0.0,0.0,97,0.00,,SKC,0.00,VWS V14.01,2013-09-07 12:18:00,
2013-09-07 08:23:00,64.4,63.5,30.09,East,94,0.0,0.0,97,0.00,,SKC,0.00,VWS V14.01,2013-09-07 12:23:00,
2013-09-07 08:28:00,67.0,66.7,30.09,East,93,0.0,0.0,99,0.00,,SKC,0.00,VWS V14.01,2013-09-07 12:28:00,
2013-09-07 08:33:00,67.4,67.1,30.09,East,90,0.0,0.0,99,0.00,,SKC,0.00,VWS V14.01,2013-09-07 12:33:00,
2013-09-07 08:38:00,67.5,67.2,30.09,NE,52,0.0,0.0,99,0.00,,SKC,0.00,VWS V14.01,2013-09-07 12:38:00,
2013-09-07 08:43:00,67.7,67.1,30.09,ENE,74,1.0,1.0,98,0.00,,SKC,0.00,VWS V14.01,2013-09-07 12:43:00,
2013-09-07 08:48:00,68.0,67.1,30.09,East,101,0.0,1.0,97,0.00,,SKC,0.00,VWS V14.01,2013-09-07 12:48:00,
2013-09-07 08:53:00,68.7,67.2,30.09,East,93,0.0,1.0,95,0.00,,SKC,0.00,VWS V14.01,2013-09-07 12:53:00,
2013-09-07 08:58:00,69.4,67.3,30.09,North,1,0.0,0.0,93,0.00,,SKC,0.00,VWS V14.01,2013-09-07 12:58:00,
2013-09-07 09:03:00,70.1,67.4,30.09,East,84,1.0,2.0,91,0.00,,SKC,0.00,VWS V14.01,2013-09-07 13:03:00,
2013-09-07 09:08:00,70.5,67.4,30.09,East,83,0.0,0.0,90,0.00,,SKC,0.00,VWS V14.01,2013-09-07 13:08:00,
2013-09-07 09:13:00,71.0,67.3,30.09,East,94,1.0,1.0,88,0.00,,SKC,0.00,VWS V14.01,2013-09-07 13:13:00,
2013-09-07 09:18:00,71.4,67.3,30.09,ESE,121,0.0,1.0,87,0.00,,SKC,0.00,VWS V14.01,2013-09-07 13:18:00,
2013-09-07 09:23:00,71.6,66.9,30.09,North,5,0.0,2.0,85,0.00,,SKC,0.00,VWS V14.01,2013-09-07 13:23:00,
2013-09-07 09:28:00,71.9,67.2,30.09,ENE,78,0.0,0.0,85,0.00,,SKC,0.00,VWS V14.01,2013-09-07 13:28:00,
2013-09-07 09:33:00,72.0,66.9,30.09,NE,41,0.0,2.0,84,0.00,,SKC,0.00,VWS V14.01,2013-09-07 13:33:00,
2013-09-07 09:38:00,72.2,67.4,30.09,NE,46,0.0,0.0,85,0.00,,SKC,0.00,VWS V14.01,2013-09-07 13:38:00,
2013-09-07 09:43:00,72.7,67.6,30.09,ENE,68,1.0,2.0,84,0.00,,SKC,0.00,VWS V14.01,2013-09-07 13:43:00,
2013-09-07 09:48:00,73.2,67.7,30.09,ENE,68,1.0,1.0,83,0.00,,SKC,0.00,VWS V14.01,2013-09-07 13:48:00,
2013-09-07 09:53:00,73.8,68.0,30.09,ENE,71,0.0,0.0,82,0.00,,SKC,0.00,VWS V14.01,2013-09-07 13:53:00,
2013-09-07 09:58:00,74.7,69.6,30.09,ENE,71,0.0,0.0,84,0.00,,SKC,0.00,VWS V14.01,2013-09-07 13:58:00,
2013-09-07 10:03:00,74.9,69.0,30.10,ENE,67,0.0,0.0,82,0.00,,SKC,0.00,VWS V14.01,2013-09-07 14:03:00,
2013-09-07 10:08:00,75.0,68.8,30.10,SSW,203,0.0,1.0,81,0.00,,SKC,0.00,VWS V14.01,2013-09-07 14:08:00,
2013-09-07 10:13:00,75.3,69.1,30.09,SW,226,0.0,1.0,81,0.00,,SKC,0.00,VWS V14.01,2013-09-07 14:13:00,
2013-09-07 10:18:00,75.5,68.5,30.10,ESE,106,1.0,1.0,79,0.00,,SKC,0.00,VWS V14.01,2013-09-07 14:18:00,
2013-09-07 10:23:00,75.7,68.4,30.10,SW,214,0.0,1.0,78,0.00,,SKC,0.00,VWS V14.01,2013-09-07 14:23:00,
2013-09-07 10:28:00,76.2,69.2,30.10,SW,214,0.0,0.0,79,0.00,,SKC,0.00,VWS V14.01,2013-09-07 14:28:00,
2013-09-07 10:33:00,76.9,68.8,30.10,SSW,198,0.0,1.0,76,0.00,,SKC,0.00,VWS V14.01,2013-09-07 14:33:00,
2013-09-07 10:38:00,77.6,69.1,30.10,SW,236,0.0,1.0,75,0.00,,SKC,0.00,VWS V14.01,2013-09-07 14:38:00,
2013-09-07 10:43:00,77.8,67.7,30.10,East,82,2.0,2.0,71,0.00,,SKC,0.00,VWS V14.01,2013-09-07 14:43:00,
2013-09-07 10:48:00,77.5,68.2,30.10,East,82,0.0,0.0,73,0.00,,SKC,0.00,VWS V14.01,2013-09-07 14:48:00,
2013-09-07 10:53:00,78.1,69.5,30.10,ESE,111,0.0,0.0,75,0.00,,SKC,0.00,VWS V14.01,2013-09-07 14:53:00,
2013-09-07 10:58:00,79.0,70.4,30.10,ENE,68,0.0,0.0,75,0.00,,SKC,0.00,VWS V14.01,2013-09-07 14:58:00,
2013-09-07 11:03:00,79.4,69.2,30.10,ESE,121,0.0,2.0,71,0.00,,SKC,0.00,VWS V14.01,2013-09-07 15:03:00,
2013-09-07 11:08:00,80.0,69.3,30.10,SW,236,1.0,1.0,70,0.00,,SKC,0.00,VWS V14.01,2013-09-07 15:08:00,
2013-09-07 11:13:00,79.7,68.6,30.10,SSW,198,0.0,1.0,69,0.00,,SCT100,0.00,VWS V14.01,2013-09-07 15:13:00,
2013-09-07 11:18:00,80.0,68.5,30.10,SSW,201,0.0,0.0,68,0.00,,SCT100,0.00,VWS V14.01,2013-09-07 15:18:00,
2013-09-07 11:23:00,79.8,67.4,30.10,NE,52,0.0,2.0,66,0.00,,SCT100,0.00,VWS V14.01,2013-09-07 15:23:00,
2013-09-07 11:28:00,79.7,68.6,30.10,ESE,103,0.0,0.0,69,0.00,,SCT100,0.00,VWS V14.01,2013-09-07 15:28:00,
2013-09-07 11:33:00,80.5,70.7,30.10,ESE,122,0.0,0.0,72,0.00,,SCT100,0.00,VWS V14.01,2013-09-07 15:33:00,
2013-09-07 11:38:00,81.3,69.3,30.10,ESE,117,0.0,1.0,67,0.00,,SCT100,0.00,VWS V14.01,2013-09-07 15:38:00,
2013-09-07 11:43:00,81.6,67.8,30.10,ENE,69,3.0,5.0,63,0.00,,SCT100,0.00,VWS V14.01,2013-09-07 15:43:00,
2013-09-07 11:48:00,80.5,69.0,30.09,South,189,0.0,1.0,68,0.00,,SCT100,0.00,VWS V14.01,2013-09-07 15:48:00,
2013-09-07 11:53:00,80.1,67.3,30.10,SSW,203,0.0,1.0,65,0.00,,SCT100,0.00,VWS V14.01,2013-09-07 15:53:00,
2013-09-07 11:58:00,80.6,68.2,30.10,WSW,241,0.0,0.0,66,0.00,,SCT100,0.00,VWS V14.01,2013-09-07 15:58:00,
2013-09-07 12:03:00,81.5,68.6,30.09,SSW,198,0.0,0.0,65,0.00,,SCT100,0.00,VWS V14.01,2013-09-07 16:03:00,
2013-09-07 12:08:00,82.2,67.4,30.09,WSW,256,0.0,0.0,61,0.00,,SCT100,0.00,VWS V14.01,2013-09-07 16:08:00,
2013-09-07 12:13:00,82.7,66.4,30.09,NE,34,0.0,2.0,58,0.00,,SCT100,0.00,VWS V14.01,2013-09-07 16:13:00,
2013-09-07 12:18:00,82.5,66.7,30.09,NE,34,0.0,1.0,59,0.00,,SCT100,0.00,VWS V14.01,2013-09-07 16:18:00,
2013-09-07 12:23:00,82.9,67.1,30.09,East,89,1.0,2.0,59,0.00,,SCT100,0.00,VWS V14.01,2013-09-07 16:23:00,
2013-09-07 12:28:00,83.3,67.5,30.09,SW,231,0.0,1.0,59,0.00,,SCT100,0.00,VWS V14.01,2013-09-07 16:28:00,
2013-09-07 12:33:00,83.2,66.9,30.09,East,93,0.0,3.0,58,0.00,,SCT100,0.00,VWS V14.01,2013-09-07 16:33:00,
2013-09-07 12:38:00,83.1,67.8,30.08,ENE,72,0.0,1.0,60,0.00,,SCT100,0.00,VWS V14.01,2013-09-07 16:38:00,
2013-09-07 12:43:00,83.5,68.2,30.08,West,263,1.0,2.0,60,0.00,,SCT100,0.00,VWS V14.01,2013-09-07 16:43:00,
2013-09-07 12:48:00,84.1,68.7,30.08,ESE,110,4.0,4.0,60,0.00,,SCT100,0.00,VWS V14.01,2013-09-07 16:48:00,
2013-09-07 12:53:00,83.9,69.0,30.08,ENE,76,0.0,1.0,61,0.00,,SCT100,0.00,VWS V14.01,2013-09-07 16:53:00,
2013-09-07 12:58:00,84.6,67.2,30.08,East,85,1.0,1.0,56,0.00,,SCT100,0.00,VWS V14.01,2013-09-07 16:58:00,
2013-09-07 13:03:00,85.2,67.8,30.08,NE,35,2.0,2.0,56,0.00,,SCT100,0.00,VWS V14.01,2013-09-07 17:03:00,
2013-09-07 13:08:00,84.7,66.8,30.07,NW,312,0.0,0.0,55,0.00,,SCT100,0.00,VWS V14.01,2013-09-07 17:08:00,
2013-09-07 13:13:00,84.3,66.4,30.07,SW,235,0.0,2.0,55,0.00,,SCT100,0.00,VWS V14.01,2013-09-07 17:13:00,
2013-09-07 13:18:00,85.1,68.7,30.07,NW,314,0.0,1.0,58,0.00,,SCT100,0.00,VWS V14.01,2013-09-07 17:18:00,
2013-09-07 13:23:00,85.7,68.7,30.07,East,93,1.0,3.0,57,0.00,,SCT100,0.00,VWS V14.01,2013-09-07 17:23:00,
2013-09-07 13:28:00,85.4,67.9,30.07,WSW,247,0.0,3.0,56,0.00,,SCT100,0.00,VWS V14.01,2013-09-07 17:28:00,
2013-09-07 13:33:00,85.8,67.2,30.07,SW,234,1.0,2.0,54,0.00,,SCT100,0.00,VWS V14.01,2013-09-07 17:33:00,
2013-09-07 13:38:00,86.8,70.3,30.07,SW,234,0.0,1.0,58,0.00,,SCT100,0.00,VWS V14.01,2013-09-07 17:38:00,
2013-09-07 13:43:00,87.7,67.3,30.07,East,96,2.0,3.0,51,0.00,,SCT100,0.00,VWS V14.01,2013-09-07 17:43:00,
2013-09-07 13:48:00,87.4,67.1,30.06,ESE,105,0.0,1.0,51,0.00,,SCT100,0.00,VWS V14.01,2013-09-07 17:48:00,
2013-09-07 13:53:00,87.3,67.0,30.06,SW,219,1.0,2.0,51,0.00,,SCT100,0.00,VWS V14.01,2013-09-07 17:53:00,
2013-09-07 13:58:00,86.1,67.0,30.06,West,263,0.0,1.0,53,0.00,,SCT100,0.00,VWS V14.01,2013-09-07 17:58:00,
2013-09-07 14:03:00,86.3,67.2,30.06,NNE,30,1.0,1.0,53,0.00,,SCT090,0.00,VWS V14.01,2013-09-07 18:03:00,
2013-09-07 14:08:00,86.5,66.2,30.06,WSW,249,0.0,2.0,51,0.00,,SCT090,0.00,VWS V14.01,2013-09-07 18:08:00,
2013-09-07 14:13:00,86.7,66.4,30.06,NNW,335,0.0,1.0,51,0.00,,SCT090,0.00,VWS V14.01,2013-09-07 18:13:00,
2013-09-07 14:18:00,87.4,67.6,30.05,SSW,210,0.0,1.0,52,0.00,,SCT090,0.00,VWS V14.01,2013-09-07 18:18:00,
2013-09-07 14:23:00,88.4,68.6,30.05,SW,226,2.0,3.0,52,0.00,,SCT090,0.00,VWS V14.01,2013-09-07 18:23:00,
2013-09-07 14:28:00,87.7,68.5,30.05,WSW,246,0.0,1.0,53,0.00,,SCT090,0.00,VWS V14.01,2013-09-07 18:28:00,
2013-09-07 14:33:00,88.6,67.6,30.05,ENE,75,1.0,2.0,50,0.00,,SCT090,0.00,VWS V14.01,2013-09-07 18:33:00,
2013-09-07 14:38:00,89.0,67.4,30.05,NE,54,1.0,1.0,49,0.00,,SCT090,0.00,VWS V14.01,2013-09-07 18:38:00,
2013-09-07 14:43:00,89.7,69.2,30.04,NE,38,1.0,1.0,51,0.00,,SCT090,0.00,VWS V14.01,2013-09-07 18:43:00,
2013-09-07 14:48:00,89.6,67.9,30.04,SE,127,1.0,1.0,49,0.00,,SCT090,0.00,VWS V14.01,2013-09-07 18:48:00,
2013-09-07 14:53:00,89.8,68.7,30.04,West,280,0.0,1.0,50,0.00,,SCT090,0.00,VWS V14.01,2013-09-07 18:53:00,
2013-09-07 14:58:00,89.4,67.1,30.04,ENE,68,2.0,3.0,48,0.00,,SCT090,0.00,VWS V14.01,2013-09-07 18:58:00,
2013-09-07 15:03:00,87.9,65.8,30.03,ENE,64,1.0,2.0,48,0.00,,SCT070,0.00,VWS V14.01,2013-09-07 19:03:00,
2013-09-07 15:08:00,87.9,70.3,30.03,East,79,0.0,1.0,56,0.00,,SCT070,0.00,VWS V14.01,2013-09-07 19:08:00,
2013-09-07 15:13:00,88.3,65.5,30.03,WSW,246,0.0,2.0,47,0.00,,SCT070,0.00,VWS V14.01,2013-09-07 19:13:00,
2013-09-07 15:18:00,89.2,68.7,30.03,NNE,29,2.0,2.0,51,0.00,,SCT070,0.00,VWS V14.01,2013-09-07 19:18:00,
2013-09-07 15:23:00,89.1,69.2,30.03,ENE,71,2.0,2.0,52,0.00,,SCT070,0.00,VWS V14.01,2013-09-07 19:23:00,
2013-09-07 15:28:00,88.3,67.3,30.02,NNE,18,1.0,1.0,50,0.00,,SCT070,0.00,VWS V14.01,2013-09-07 19:28:00,
2013-09-07 15:33:00,87.7,66.2,30.02,North,9,1.0,1.0,49,0.00,,SCT070,0.00,VWS V14.01,2013-09-07 19:33:00,
2013-09-07 15:38:00,87.1,66.8,30.02,NNE,13,1.0,1.0,51,0.00,,SCT070,0.00,VWS V14.01,2013-09-07 19:38:00,
2013-09-07 15:43:00,87.4,65.9,30.02,ENE,65,0.0,3.0,49,0.00,,SCT070,0.00,VWS V14.01,2013-09-07 19:43:00,
2013-09-07 15:48:00,88.1,68.3,30.02,SW,234,0.0,1.0,52,0.00,,SCT070,0.00,VWS V14.01,2013-09-07 19:48:00,
2013-09-07 15:53:00,88.8,67.2,30.02,SSE,166,0.0,1.0,49,0.00,,SCT070,0.00,VWS V14.01,2013-09-07 19:53:00,
2013-09-07 15:58:00,89.1,66.9,30.01,SE,140,0.0,0.0,48,0.00,,SCT070,0.00,VWS V14.01,2013-09-07 19:58:00,
2013-09-07 16:03:00,89.1,66.3,30.01,SW,232,1.0,2.0,47,0.00,,SCT060,0.00,VWS V14.01,2013-09-07 20:03:00,
2013-09-07 16:08:00,88.8,65.4,30.01,SW,232,0.0,1.0,46,0.00,,SCT060,0.00,VWS V14.01,2013-09-07 20:08:00,
2013-09-07 16:13:00,89.0,65.6,30.01,SW,232,0.0,1.0,46,0.00,,SCT060,0.00,VWS V14.01,2013-09-07 20:13:00,
2013-09-07 16:18:00,88.8,66.6,30.01,SW,232,0.0,0.0,48,0.00,,SCT060,0.00,VWS V14.01,2013-09-07 20:18:00,
2013-09-07 16:23:00,88.8,66.0,30.00,SW,234,0.0,0.0,47,0.00,,SCT060,0.00,VWS V14.01,2013-09-07 20:23:00,
2013-09-07 16:28:00,87.4,67.1,30.00,NE,49,0.0,1.0,51,0.00,,SCT060,0.00,VWS V14.01,2013-09-07 20:28:00,
2013-09-07 16:33:00,86.1,65.9,30.00,NE,49,0.0,0.0,51,0.00,,SCT060,0.00,VWS V14.01,2013-09-07 20:33:00,
2013-09-07 16:38:00,85.6,67.6,30.00,NE,36,0.0,1.0,55,0.00,,SCT060,0.00,VWS V14.01,2013-09-07 20:38:00,
2013-09-07 16:43:00,85.5,65.9,30.00,NE,34,0.0,1.0,52,0.00,,SCT060,0.00,VWS V14.01,2013-09-07 20:43:00,
2013-09-07 16:48:00,85.0,64.9,30.00,NE,44,0.0,1.0,51,0.00,,SCT060,0.00,VWS V14.01,2013-09-07 20:48:00,
2013-09-07 16:53:00,85.2,67.8,30.00,NNE,32,0.0,2.0,56,0.00,,SCT060,0.00,VWS V14.01,2013-09-07 20:53:00,
2013-09-07 16:58:00,85.6,66.5,30.00,SW,229,0.0,1.0,53,0.00,,SCT060,0.00,VWS V14.01,2013-09-07 20:58:00,
2013-09-07 17:03:00,86.2,65.4,30.00,South,169,0.0,0.0,50,0.00,,SCT060,0.00,VWS V14.01,2013-09-07 21:03:00,
2013-09-07 17:08:00,87.1,66.2,29.99,South,177,0.0,1.0,50,0.00,,SCT060,0.00,VWS V14.01,2013-09-07 21:08:00,
2013-09-07 17:14:00,86.8,65.4,29.99,NW,316,0.0,0.0,49,0.00,,SCT060,0.00,VWS V14.01,2013-09-07 21:14:00,
2013-09-07 17:18:00,87.0,66.1,29.99,WSW,246,1.0,2.0,50,0.00,,SCT060,0.00,VWS V14.01,2013-09-07 21:18:00,
2013-09-07 17:23:00,86.8,64.8,29.99,NE,45,1.0,1.0,48,0.00,,SCT060,0.00,VWS V14.01,2013-09-07 21:23:00,
2013-09-07 17:29:00,86.1,65.9,29.99,NNW,345,0.0,1.0,51,0.00,,SCT060,0.00,VWS V14.01,2013-09-07 21:29:00,
2013-09-07 17:34:00,85.5,65.9,29.99,NNE,19,0.0,1.0,52,0.00,,SCT060,0.00,VWS V14.01,2013-09-07 21:34:00,
2013-09-07 17:39:00,85.4,65.8,29.99,NNE,19,0.0,1.0,52,0.00,,SCT060,0.00,VWS V14.01,2013-09-07 21:39:00,
2013-09-07 17:44:00,85.1,65.5,29.98,North,9,0.0,1.0,52,0.00,,SCT060,0.00,VWS V14.01,2013-09-07 21:44:00,
2013-09-07 17:49:00,85.4,69.0,29.98,WNW,291,0.0,0.0,58,0.00,,SCT060,0.00,VWS V14.01,2013-09-07 21:49:00,
2013-09-07 17:54:00,85.4,67.9,29.98,WSW,239,0.0,1.0,56,0.00,,SCT060,0.00,VWS V14.01,2013-09-07 21:54:00,
2013-09-07 17:59:00,85.0,67.0,29.98,WSW,239,0.0,0.0,55,0.00,,SCT060,0.00,VWS V14.01,2013-09-07 21:59:00,
2013-09-07 18:04:00,84.3,65.3,29.98,NNE,25,1.0,1.0,53,0.00,,FEW060,0.00,VWS V14.01,2013-09-07 22:04:00,
2013-09-07 18:09:00,83.9,67.6,29.98,NNE,24,0.0,0.0,58,0.00,,FEW060,0.00,VWS V14.01,2013-09-07 22:09:00,
2013-09-07 18:14:00,84.0,67.1,29.98,NNE,25,0.0,1.0,57,0.00,,FEW060,0.00,VWS V14.01,2013-09-07 22:14:00,
2013-09-07 18:19:00,83.9,67.1,29.98,NNE,24,0.0,0.0,57,0.00,,FEW060,0.00,VWS V14.01,2013-09-07 22:19:00,
2013-09-07 18:24:00,83.8,68.0,29.98,NNE,25,0.0,0.0,59,0.00,,FEW060,0.00,VWS V14.01,2013-09-07 22:24:00,
2013-09-07 18:29:00,83.4,69.0,29.98,NNE,25,0.0,0.0,62,0.00,,FEW060,0.00,VWS V14.01,2013-09-07 22:29:00,
2013-09-07 18:34:00,83.0,68.2,29.98,NNE,25,0.0,0.0,61,0.00,,FEW060,0.00,VWS V14.01,2013-09-07 22:34:00,
2013-09-07 18:39:00,82.4,67.6,29.98,NNE,25,0.0,0.0,61,0.00,,FEW060,0.00,VWS V14.01,2013-09-07 22:39:00,
2013-09-07 18:44:00,81.8,66.6,29.98,NNE,25,0.0,0.0,60,0.00,,FEW060,0.00,VWS V14.01,2013-09-07 22:44:00,
2013-09-07 18:49:00,81.5,66.8,29.98,NNE,24,0.0,0.0,61,0.00,,FEW060,0.00,VWS V14.01,2013-09-07 22:49:00,
2013-09-07 18:54:00,81.3,68.0,29.98,NNE,25,0.0,0.0,64,0.00,,FEW060,0.00,VWS V14.01,2013-09-07 22:54:00,
2013-09-07 18:59:00,81.0,67.2,29.98,NNE,25,0.0,0.0,63,0.00,,FEW060,0.00,VWS V14.01,2013-09-07 22:59:00,
2013-09-07 19:04:00,80.7,67.8,29.98,NNE,25,0.0,0.0,65,0.00,,FEW050,0.00,VWS V14.01,2013-09-07 23:04:00,
2013-09-07 19:09:00,80.3,67.9,29.98,NNE,24,0.0,0.0,66,0.00,,FEW050,0.00,VWS V14.01,2013-09-07 23:09:00,
2013-09-07 19:14:00,80.0,67.6,29.98,NNE,25,0.0,0.0,66,0.00,,FEW050,0.00,VWS V14.01,2013-09-07 23:14:00,
2013-09-07 19:19:00,79.7,67.8,29.98,NNE,25,0.0,0.0,67,0.00,,FEW050,0.00,VWS V14.01,2013-09-07 23:19:00,
2013-09-07 19:24:00,79.4,68.8,29.98,NNE,25,0.0,0.0,70,0.00,,FEW050,0.00,VWS V14.01,2013-09-07 23:24:00,
2013-09-07 19:29:00,78.8,68.6,29.98,NNE,25,0.0,0.0,71,0.00,,FEW050,0.00,VWS V14.01,2013-09-07 23:29:00,
2013-09-07 19:34:00,78.4,67.8,29.98,NNE,25,0.0,0.0,70,0.00,,FEW050,0.00,VWS V14.01,2013-09-07 23:34:00,
2013-09-07 19:39:00,78.0,68.7,29.98,NNE,24,0.0,0.0,73,0.00,,FEW050,0.00,VWS V14.01,2013-09-07 23:39:00,
2013-09-07 19:44:00,77.7,68.4,29.98,NNE,24,0.0,0.0,73,0.00,,FEW050,0.00,VWS V14.01,2013-09-07 23:44:00,
2013-09-07 19:49:00,77.3,68.8,29.98,NNE,24,0.0,0.0,75,0.00,,FEW050,0.00,VWS V14.01,2013-09-07 23:49:00,
2013-09-07 19:54:00,76.8,68.3,29.98,NNE,24,0.0,0.0,75,0.00,,FEW050,0.00,VWS V14.01,2013-09-07 23:54:00,
2013-09-07 19:59:00,76.4,68.7,29.98,NNE,24,0.0,0.0,77,0.00,,FEW050,0.00,VWS V14.01,2013-09-07 23:59:00,
2013-09-07 20:04:00,76.1,68.4,29.98,NNE,24,0.0,0.0,77,0.00,,SKC,0.00,VWS V14.01,2013-09-08 00:04:00,
2013-09-07 20:09:00,75.7,68.7,29.98,NNE,24,0.0,0.0,79,0.00,,SKC,0.00,VWS V14.01,2013-09-08 00:09:00,
2013-09-07 20:14:00,75.2,68.6,29.98,NNE,24,0.0,0.0,80,0.00,,SKC,0.00,VWS V14.01,2013-09-08 00:14:00,
2013-09-07 20:19:00,74.7,68.5,29.98,NNE,24,0.0,0.0,81,0.00,,SKC,0.00,VWS V14.01,2013-09-08 00:19:00,
2013-09-07 20:24:00,74.3,68.4,29.98,NNE,25,0.0,0.0,82,0.00,,SKC,0.00,VWS V14.01,2013-09-08 00:24:00,
2013-09-07 20:29:00,73.9,68.4,29.98,NNE,24,0.0,0.0,83,0.00,,SKC,0.00,VWS V14.01,2013-09-08 00:29:00,
2013-09-07 20:34:00,73.6,68.1,29.99,NNE,24,0.0,0.0,83,0.00,,SKC,0.00,VWS V14.01,2013-09-08 00:34:00,
2013-09-07 20:39:00,73.2,67.7,29.99,NNE,24,0.0,0.0,83,0.00,,SKC,0.00,VWS V14.01,2013-09-08 00:39:00,
2013-09-07 20:44:00,72.8,67.7,29.99,NNE,25,0.0,0.0,84,0.00,,SKC,0.00,VWS V14.01,2013-09-08 00:44:00,
2013-09-07 20:49:00,72.5,67.7,29.99,NNE,24,0.0,0.0,85,0.00,,SKC,0.00,VWS V14.01,2013-09-08 00:49:00,
2013-09-07 20:54:00,72.2,67.8,29.99,NNE,24,0.0,0.0,86,0.00,,SKC,0.00,VWS V14.01,2013-09-08 00:54:00,
2013-09-07 20:59:00,71.9,67.5,29.99,NNE,25,0.0,0.0,86,0.00,,SKC,0.00,VWS V14.01,2013-09-08 00:59:00,
2013-09-07 21:04:00,71.7,67.6,29.99,NNE,24,0.0,0.0,87,0.00,,SKC,0.00,VWS V14.01,2013-09-08 01:04:00,
2013-09-07 21:09:00,71.4,67.7,30.00,NNE,24,0.0,0.0,88,0.00,,SKC,0.00,VWS V14.01,2013-09-08 01:09:00,
2013-09-07 21:14:00,71.1,67.0,30.00,NNE,24,0.0,0.0,87,0.00,,SKC,0.00,VWS V14.01,2013-09-08 01:14:00,
2013-09-07 21:19:00,70.9,67.2,30.00,NNE,24,0.0,0.0,88,0.00,,SKC,0.00,VWS V14.01,2013-09-08 01:19:00,
2013-09-07 21:24:00,70.5,66.8,30.00,NNE,24,0.0,0.0,88,0.00,,SKC,0.00,VWS V14.01,2013-09-08 01:24:00,
2013-09-07 21:29:00,70.3,66.9,30.00,NNE,25,0.0,0.0,89,0.00,,SKC,0.00,VWS V14.01,2013-09-08 01:29:00,
2013-09-07 21:34:00,70.3,67.2,30.00,NNE,24,0.0,0.0,90,0.00,,SKC,0.00,VWS V14.01,2013-09-08 01:34:00,
2013-09-07 21:39:00,70.3,67.2,30.00,NNE,24,0.0,0.0,90,0.00,,SKC,0.00,VWS V14.01,2013-09-08 01:39:00,
2013-09-07 21:44:00,70.3,67.6,30.00,NNE,24,0.0,0.0,91,0.00,,SKC,0.00,VWS V14.01,2013-09-08 01:44:00,
2013-09-07 21:49:00,70.4,67.7,30.00,NNE,24,0.0,0.0,91,0.00,,SKC,0.00,VWS V14.01,2013-09-08 01:49:00,
2013-09-07 21:54:00,70.3,67.2,30.00,NNE,25,0.0,0.0,90,0.00,,SKC,0.00,VWS V14.01,2013-09-08 01:54:00,
2013-09-07 21:59:00,70.1,67.4,30.00,NNE,25,0.0,0.0,91,0.00,,SKC,0.00,VWS V14.01,2013-09-08 01:59:00,
2013-09-07 22:04:00,69.9,67.2,30.00,NNE,24,0.0,0.0,91,0.00,,SKC,0.00,VWS V14.01,2013-09-08 02:04:00,
2013-09-07 22:09:00,69.6,66.9,30.00,NNE,25,0.0,0.0,91,0.00,,SKC,0.00,VWS V14.01,2013-09-08 02:09:00,
2013-09-07 22:14:00,69.5,67.1,30.00,NNE,25,0.0,0.0,92,0.00,,SKC,0.00,VWS V14.01,2013-09-08 02:14:00,
2013-09-07 22:19:00,69.5,67.4,30.00,NNE,25,0.0,0.0,93,0.00,,SKC,0.00,VWS V14.01,2013-09-08 02:19:00,
2013-09-07 22:24:00,69.4,67.3,30.00,NNE,24,0.0,0.0,93,0.00,,SKC,0.00,VWS V14.01,2013-09-08 02:24:00,
2013-09-07 22:29:00,69.3,67.2,30.00,NNE,24,0.0,0.0,93,0.00,,SKC,0.00,VWS V14.01,2013-09-08 02:29:00,
2013-09-07 22:34:00,69.0,66.6,30.00,NNE,25,0.0,0.0,92,0.00,,SKC,0.00,VWS V14.01,2013-09-08 02:34:00,
2013-09-07 22:39:00,68.8,66.4,30.00,NNE,24,0.0,0.0,92,0.00,,SKC,0.00,VWS V14.01,2013-09-08 02:39:00,
2013-09-07 22:44:00,68.8,67.0,30.00,NNE,24,0.0,0.0,94,0.00,,SKC,0.00,VWS V14.01,2013-09-08 02:44:00,
2013-09-07 22:49:00,68.8,67.0,30.00,NNE,25,0.0,0.0,94,0.00,,SKC,0.00,VWS V14.01,2013-09-08 02:49:00,
2013-09-07 22:54:00,68.7,66.9,30.00,NNE,24,0.0,0.0,94,0.00,,SKC,0.00,VWS V14.01,2013-09-08 02:54:00,
2013-09-07 22:59:00,68.6,66.8,30.00,NNE,24,0.0,0.0,94,0.00,,SKC,0.00,VWS V14.01,2013-09-08 02:59:00,
2013-09-07 23:04:00,68.6,66.8,30.00,NNE,24,0.0,0.0,94,0.00,,SKC,0.00,VWS V14.01,2013-09-08 03:04:00,
2013-09-07 23:09:00,68.4,66.6,30.00,NNE,24,0.0,0.0,94,0.00,,SKC,0.00,VWS V14.01,2013-09-08 03:09:00,
2013-09-07 23:14:00,68.2,66.4,30.00,NNE,24,0.0,0.0,94,0.00,,SKC,0.00,VWS V14.01,2013-09-08 03:14:00,
2013-09-07 23:19:00,68.0,66.2,30.00,NNE,24,0.0,0.0,94,0.00,,SKC,0.00,VWS V14.01,2013-09-08 03:19:00,
2013-09-07 23:24:00,68.0,66.5,30.00,NNE,25,0.0,0.0,95,0.00,,SKC,0.00,VWS V14.01,2013-09-08 03:24:00,
2013-09-07 23:29:00,68.0,66.5,30.00,NNE,24,0.0,0.0,95,0.00,,SKC,0.00,VWS V14.01,2013-09-08 03:29:00,
2013-09-07 23:34:00,68.1,66.9,30.00,NNE,25,0.0,0.0,96,0.00,,SKC,0.00,VWS V14.01,2013-09-08 03:34:00,
2013-09-07 23:39:00,68.1,66.6,30.00,NNE,24,0.0,0.0,95,0.00,,SKC,0.00,VWS V14.01,2013-09-08 03:39:00,
2013-09-07 23:44:00,67.9,66.4,30.00,NNE,25,0.0,0.0,95,0.00,,SKC,0.00,VWS V14.01,2013-09-08 03:44:00,
2013-09-07 23:49:00,67.6,66.1,30.00,NNE,25,0.0,0.0,95,0.00,,SKC,0.00,VWS V14.01,2013-09-08 03:49:00,
2013-09-07 23:54:00,67.4,65.9,30.00,NNE,24,0.0,0.0,95,0.00,,SKC,0.00,VWS V14.01,2013-09-08 03:54:00,
2013-09-07 23:59:00,67.5,66.3,30.00,NNE,24,0.0,0.0,96,0.00,,SKC,0.00,VWS V14.01,2013-09-08 03:59:00,